Time;durP1;ratioP1;P1;durP2;ratioP2;P2;SDS_P1;SDS_P2;PMS_P1;PMS_P2;Temp;Humidity;BMP_temperature;BMP_pressure;BME280_temperature;BME280_humidity;BME280_pressure;Samples;Min_cycle;Max_cycle;Signal;HPM_P1;HPM_P2
2021/03/26 00:01:48;;;;;;;31.90;19.30;;;8.50;99.90;;;;;;5051361;28;20414;-72
2021/03/26 00:04:16;;;;;;;34.50;21.57;;;8.50;99.90;;;;;;5034949;28;20959;-72
2021/03/26 00:06:47;;;;;;;35.75;23.90;;;8.40;99.90;;;;;;5051267;28;20443;-72
2021/03/26 00:09:26;;;;;;;29.27;20.60;;;8.40;99.90;;;;;;5069163;28;20714;-72
2021/03/26 00:11:58;;;;;;;25.43;17.73;;;8.50;99.90;;;;;;5054438;28;20400;-72
2021/03/26 00:14:25;;;;;;;29.73;18.20;;;8.50;99.90;;;;;;5032789;28;20495;-72
2021/03/26 00:16:51;;;;;;;28.80;17.77;;;8.50;99.90;;;;;;5033021;28;20428;-72
2021/03/26 00:19:18;;;;;;;24.30;18.03;;;8.40;99.90;;;;;;5052310;28;20440;-72
2021/03/26 00:21:46;;;;;;;25.30;18.80;;;8.40;99.90;;;;;;5051881;28;20475;-72
2021/03/26 00:24:13;;;;;;;27.00;17.67;;;8.40;99.90;;;;;;5077418;28;20427;-72
2021/03/26 00:26:40;;;;;;;24.80;18.17;;;8.40;99.90;;;;;;5052683;28;20455;-72
2021/03/26 00:29:12;;;;;;;27.87;19.37;;;8.40;99.90;;;;;;5036428;28;20452;-72
2021/03/26 00:31:42;;;;;;;23.97;17.63;;;8.40;99.90;;;;;;5035819;28;20514;-72
2021/03/26 00:34:27;;;;;;;27.77;17.50;;;8.40;99.90;;;;;;5024422;28;20832;-71
2021/03/26 00:36:55;;;;;;;23.67;16.43;;;8.40;99.90;;;;;;5019705;28;20433;-72
2021/03/26 00:39:21;;;;;;;24.50;18.27;;;8.40;99.90;;;;;;5053046;28;20508;-72
2021/03/26 00:41:47;;;;;;;28.43;17.80;;;8.40;99.90;;;;;;5051939;28;20462;-72
2021/03/26 00:44:13;;;;;;;21.70;16.27;;;8.30;99.90;;;;;;5036746;28;20439;-72
2021/03/26 00:46:41;;;;;;;28.50;17.67;;;8.30;99.90;;;;;;5036385;28;20461;-72
2021/03/26 00:49:10;;;;;;;31.37;17.90;;;8.30;99.90;;;;;;5052673;28;20956;-71
2021/03/26 00:51:37;;;;;;;22.30;16.73;;;8.30;99.90;;;;;;5035735;28;20435;-72
2021/03/26 00:54:06;;;;;;;24.30;17.40;;;8.20;99.90;;;;;;5052670;28;20427;-72
2021/03/26 00:56:34;;;;;;;23.43;15.40;;;8.20;99.90;;;;;;5052125;28;20431;-71
2021/03/26 00:59:01;;;;;;;27.00;17.07;;;8.10;99.90;;;;;;5052704;28;20508;-72
2021/03/26 01:01:27;;;;;;;27.97;16.00;;;8.10;99.90;;;;;;5053160;28;20432;-71
2021/03/26 01:03:55;;;;;;;22.90;16.30;;;8.10;99.90;;;;;;5052571;28;20448;-71
2021/03/26 01:06:26;;;;;;;22.20;15.70;;;8.00;99.90;;;;;;5053147;28;20474;-72
2021/03/26 01:08:59;;;;;;;21.77;16.30;;;8.00;99.90;;;;;;5052969;28;20499;-72
2021/03/26 01:11:29;;;;;;;24.80;17.10;;;8.00;99.90;;;;;;5051752;28;20425;-72
2021/03/26 01:13:56;;;;;;;23.47;17.07;;;7.90;99.90;;;;;;5052890;28;20617;-72
2021/03/26 01:16:26;;;;;;;22.63;16.70;;;7.90;99.90;;;;;;5036080;28;20435;-71
2021/03/26 01:18:54;;;;;;;29.83;17.97;;;7.90;99.90;;;;;;5052721;28;20438;-72
2021/03/26 01:21:32;;;;;;;25.47;17.97;;;7.80;99.90;;;;;;5052321;28;20420;-71
2021/03/26 01:23:59;;;;;;;26.67;17.67;;;7.80;99.90;;;;;;5052001;28;20566;-72
2021/03/26 01:26:27;;;;;;;26.20;17.67;;;7.80;99.90;;;;;;5052742;28;20542;-72
2021/03/26 01:29:17;;;;;;;26.00;17.90;;;7.80;99.90;;;;;;5051841;28;20429;-72
2021/03/26 01:32:05;;;;;;;28.60;17.57;;;7.70;99.90;;;;;;5054882;28;20448;-71
2021/03/26 01:34:36;;;;;;;21.60;17.10;;;7.70;99.90;;;;;;5039177;28;20428;-72
2021/03/26 01:37:04;;;;;;;27.83;17.92;;;7.70;99.90;;;;;;5057019;28;20427;-71
2021/03/26 01:39:44;;;;;;;24.90;18.13;;;7.70;99.90;;;;;;5056022;28;20670;-72
2021/03/26 01:42:29;;;;;;;24.73;17.33;;;7.60;99.90;;;;;;5039616;28;20486;-72
2021/03/26 01:44:56;;;;;;;31.60;18.08;;;7.60;99.90;;;;;;5055741;28;20564;-71
2021/03/26 01:47:38;;;;;;;29.90;18.77;;;7.60;99.90;;;;;;5074464;28;20217;-72
2021/03/26 01:50:10;;;;;;;27.13;17.30;;;7.60;99.90;;;;;;5055513;28;20433;-72
2021/03/26 01:52:36;;;;;;;25.73;17.10;;;7.60;99.90;;;;;;5039489;28;20484;-71
2021/03/26 01:55:04;;;;;;;25.97;17.67;;;7.50;99.90;;;;;;5055295;28;20471;-71
2021/03/26 01:57:32;;;;;;;25.13;17.55;;;7.50;99.90;;;;;;5039245;28;20431;-71
2021/03/26 02:00:16;;;;;;;25.40;17.20;;;7.50;99.90;;;;;;5074005;28;20218;-72
2021/03/26 02:02:46;;;;;;;27.37;16.70;;;7.40;99.90;;;;;;5056042;28;20450;-71
2021/03/26 02:05:39;;;;;;;24.77;15.90;;;7.40;99.90;;;;;;5035419;28;20884;-71
2021/03/26 02:08:28;;;;;;;26.03;16.13;;;7.30;99.90;;;;;;5038923;28;20724;-71
2021/03/26 02:11:26;;;;;;;22.15;14.93;;;7.20;99.90;;;;;;5056034;28;20423;-71
2021/03/26 02:13:56;;;;;;;23.33;16.95;;;7.20;99.90;;;;;;5066872;28;20200;-71
2021/03/26 02:16:28;;;;;;;24.73;17.20;;;7.10;99.90;;;;;;5055900;28;20706;-71
2021/03/26 02:19:22;;;;;;;21.40;16.30;;;7.00;99.90;;;;;;5041456;28;20961;-71
2021/03/26 02:21:48;;;;;;;22.95;16.40;;;7.00;99.90;;;;;;5054279;28;20426;-71
2021/03/26 02:24:15;;;;;;;25.20;16.73;;;7.00;99.90;;;;;;5038984;28;20188;-71
2021/03/26 02:26:45;;;;;;;23.58;15.50;;;7.00;99.90;;;;;;5073760;28;20309;-71
2021/03/26 02:29:23;;;;;;;24.75;16.20;;;6.90;99.90;;;;;;5055211;28;20529;-71
2021/03/26 02:32:18;;;;;;;25.50;16.65;;;6.90;99.90;;;;;;5073410;28;20204;-71
2021/03/26 02:35:12;;;;;;;25.37;16.17;;;6.90;99.90;;;;;;5071877;28;20212;-71
2021/03/26 02:37:56;;;;;;;26.73;16.77;;;6.80;99.90;;;;;;5055330;28;20414;-71
2021/03/26 02:40:33;;;;;;;31.17;17.37;;;6.80;99.90;;;;;;5038459;28;20222;-71
2021/03/26 02:43:20;;;;;;;26.03;17.50;;;6.70;99.90;;;;;;5053580;28;20811;-71
2021/03/26 02:45:54;;;;;;;24.70;16.42;;;6.70;99.90;;;;;;5073347;28;20458;-71
2021/03/26 02:48:32;;;;;;;23.98;14.93;;;6.70;99.90;;;;;;5037269;28;20180;-71
2021/03/26 02:51:05;;;;;;;33.08;16.73;;;6.60;99.90;;;;;;5071524;28;20791;-71
2021/03/26 02:54:13;;;;;;;30.45;17.10;;;6.50;99.90;;;;;;5072214;28;20220;-71
2021/03/26 02:57:08;;;;;;;26.67;17.50;;;6.50;99.90;;;;;;5054587;28;20191;-71
2021/03/26 03:00:02;;;;;;;29.17;16.95;;;6.50;99.90;;;;;;5054366;28;20445;-71
2021/03/26 03:02:32;;;;;;;27.90;16.65;;;6.50;99.90;;;;;;5038550;28;20597;-72
2021/03/26 03:05:13;;;;;;;23.23;16.60;;;6.40;99.90;;;;;;5053571;28;20208;-71
2021/03/26 03:07:47;;;;;;;27.15;17.98;;;6.40;99.90;;;;;;5054525;28;20963;-71
2021/03/26 03:10:43;;;;;;;24.17;16.30;;;6.40;99.90;;;;;;5054054;28;20649;-71
2021/03/26 03:13:22;;;;;;;25.40;17.83;;;6.40;99.90;;;;;;5054419;28;20814;-71
2021/03/26 03:16:06;;;;;;;22.55;16.58;;;6.40;99.90;;;;;;5064747;28;20262;-71
2021/03/26 03:18:39;;;;;;;25.23;16.33;;;6.30;99.90;;;;;;5054132;28;20188;-71
2021/03/26 03:21:17;;;;;;;22.23;16.17;;;6.30;99.90;;;;;;5054259;28;20193;-71
2021/03/26 03:24:01;;;;;;;26.63;17.38;;;6.30;99.90;;;;;;5053630;28;20579;-71
2021/03/26 03:26:40;;;;;;;29.30;17.33;;;6.20;99.90;;;;;;5070966;28;20205;-71
2021/03/26 03:29:36;;;;;;;23.45;16.17;;;6.20;99.90;;;;;;5071558;28;20290;-71
2021/03/26 03:32:34;;;;;;;24.30;16.05;;;6.10;99.90;;;;;;5054491;28;20223;-71
2021/03/26 03:35:11;;;;;;;24.48;16.20;;;6.10;99.90;;;;;;5038438;28;20189;-71
2021/03/26 03:38:09;;;;;;;26.80;16.60;;;6.10;99.90;;;;;;5054332;28;20658;-71
2021/03/26 03:40:57;;;;;;;27.95;16.73;;;6.00;99.90;;;;;;5071900;28;20195;-71
2021/03/26 03:43:28;;;;;;;24.75;16.25;;;6.00;99.90;;;;;;5031848;28;20283;-71
2021/03/26 03:46:05;;;;;;;25.05;16.52;;;6.00;99.90;;;;;;5069851;28;20211;-71
2021/03/26 03:49:19;;;;;;;27.90;16.35;;;6.00;99.90;;;;;;5070672;28;20270;-71
2021/03/26 03:52:04;;;;;;;25.70;16.85;;;5.90;99.90;;;;;;5037321;28;20184;-71
2021/03/26 03:54:39;;;;;;;25.52;17.08;;;5.90;99.90;;;;;;5047726;28;20283;-71
2021/03/26 03:57:22;;;;;;;31.70;17.15;;;5.90;99.90;;;;;;5052723;28;20191;-71
2021/03/26 03:59:51;;;;;;;30.60;18.13;;;5.90;99.90;;;;;;5053450;28;20192;-71
2021/03/26 04:02:35;;;;;;;25.80;17.77;;;5.90;99.90;;;;;;5053567;28;20227;-71
2021/03/26 04:05:19;;;;;;;30.70;17.85;;;5.90;99.90;;;;;;5053610;28;20303;-71
2021/03/26 04:08:27;;;;;;;26.80;18.02;;;5.90;99.90;;;;;;5036951;28;20710;-71
2021/03/26 04:11:07;;;;;;;26.65;17.80;;;5.90;99.90;;;;;;5039900;28;20188;-71
2021/03/26 04:13:41;;;;;;;28.45;19.10;;;5.80;99.90;;;;;;5052081;28;20199;-71
2021/03/26 04:16:11;;;;;;;30.27;18.13;;;5.80;99.90;;;;;;5036174;28;20185;-71
2021/03/26 04:18:53;;;;;;;27.30;17.90;;;5.80;99.90;;;;;;5071647;28;20198;-71
2021/03/26 04:21:41;;;;;;;27.98;18.30;;;5.80;99.90;;;;;;5061087;28;20200;-71
2021/03/26 04:24:32;;;;;;;32.97;19.40;;;5.80;99.90;;;;;;5036871;28;20186;-71
2021/03/26 04:27:35;;;;;;;29.80;18.02;;;5.80;99.90;;;;;;5065685;28;20211;-71
2021/03/26 04:30:32;;;;;;;29.55;17.58;;;5.80;99.90;;;;;;5066826;28;20201;-71
2021/03/26 04:33:20;;;;;;;27.13;18.15;;;5.80;99.90;;;;;;5064265;28;20215;-71
2021/03/26 04:35:50;;;;;;;27.08;18.23;;;5.80;99.90;;;;;;5037023;28;20176;-71
2021/03/26 04:38:28;;;;;;;31.90;18.52;;;5.70;99.90;;;;;;5053054;28;20666;-71
2021/03/26 04:41:00;;;;;;;31.52;19.45;;;5.80;99.90;;;;;;5053263;28;20188;-71
2021/03/26 04:43:57;;;;;;;29.83;17.02;;;5.70;99.90;;;;;;5062636;28;20303;-71
2021/03/26 04:46:36;;;;;;;27.05;17.98;;;5.70;99.90;;;;;;5053148;28;20261;-71
2021/03/26 04:50:00;;;;;;;29.45;18.40;;;5.70;99.90;;;;;;5052332;28;20218;-71
2021/03/26 04:52:43;;;;;;;28.23;18.27;;;5.70;99.90;;;;;;5028178;28;20212;-71
2021/03/26 04:55:16;;;;;;;32.83;18.92;;;5.70;99.90;;;;;;5052857;28;20745;-71
2021/03/26 04:58:01;;;;;;;30.95;18.92;;;5.70;99.90;;;;;;5070349;28;20184;-71
2021/03/26 05:00:49;;;;;;;33.58;20.70;;;5.70;99.90;;;;;;5056029;28;20194;-71
2021/03/26 05:03:31;;;;;;;32.33;19.98;;;5.60;99.90;;;;;;5052038;28;20669;-71
2021/03/26 05:06:19;;;;;;;33.88;19.63;;;5.60;99.90;;;;;;5054986;28;20214;-71
2021/03/26 05:08:52;;;;;;;30.45;20.08;;;5.60;99.90;;;;;;5068378;28;20585;-71
2021/03/26 05:11:48;;;;;;;30.25;20.02;;;5.60;99.90;;;;;;5051922;28;20183;-71
2021/03/26 05:14:24;;;;;;;30.17;21.05;;;5.60;99.90;;;;;;5056198;28;20186;-71
2021/03/26 05:17:30;;;;;;;31.85;20.85;;;5.70;99.90;;;;;;5074397;28;20193;-71
2021/03/26 05:20:42;;;;;;;34.25;20.80;;;5.70;99.90;;;;;;4991061;28;20193;-69
2021/03/26 05:23:44;;;;;;;37.58;22.30;;;5.70;99.90;;;;;;4975244;28;20258;-70
2021/03/26 05:26:32;;;;;;;31.65;19.92;;;5.80;99.90;;;;;;5055792;28;20238;-70
2021/03/26 05:29:32;;;;;;;34.17;20.20;;;5.80;99.90;;;;;;5006718;28;20741;-70
2021/03/26 05:32:25;;;;;;;36.05;22.27;;;5.80;99.90;;;;;;5057963;28;20207;-70
2021/03/26 05:35:23;;;;;;;37.45;22.45;;;5.90;99.90;;;;;;5060335;28;20192;-70
2021/03/26 05:38:41;;;;;;;36.38;21.23;;;5.90;99.90;;;;;;5004187;28;20588;-70
2021/03/26 05:42:04;;;;;;;37.17;22.15;;;6.00;99.90;;;;;;5075839;28;20183;-70
2021/03/26 05:45:48;;;;;;;34.50;21.48;;;6.00;99.90;;;;;;5059691;28;20206;-70
2021/03/26 05:49:18;;;;;;;35.03;22.85;;;6.10;99.90;;;;;;5013147;28;20200;-69
2021/03/26 05:52:02;;;;;;;46.75;25.63;;;6.10;99.90;;;;;;5021128;28;20160;-70
2021/03/26 05:55:16;;;;;;;39.25;24.88;;;6.20;99.90;;;;;;5021282;28;20169;-69
2021/03/26 05:58:10;;;;;;;42.40;24.95;;;6.30;99.90;;;;;;5013170;28;20178;-69
2021/03/26 06:00:58;;;;;;;44.35;25.27;;;6.40;99.90;;;;;;4997486;28;20660;-69
2021/03/26 06:04:20;;;;;;;47.15;24.65;;;6.40;99.90;;;;;;5033194;28;20765;-70
2021/03/26 06:07:39;;;;;;;45.42;25.65;;;6.50;99.90;;;;;;5030265;28;20573;-70
2021/03/26 06:10:44;;;;;;;43.00;24.98;;;6.60;99.90;;;;;;5031159;28;20686;-70
2021/03/26 06:13:38;;;;;;;38.90;24.73;;;6.70;99.90;;;;;;5016934;28;20234;-70
2021/03/26 06:16:59;;;;;;;43.55;26.65;;;6.80;99.90;;;;;;5001533;28;20199;-70
2021/03/26 06:20:03;;;;;;;44.67;24.92;;;7.00;99.90;;;;;;4998305;28;20184;-71
2021/03/26 06:23:26;;;;;;;41.67;27.38;;;7.10;99.90;;;;;;5031799;28;20773;-69
2021/03/26 06:26:27;;;;;;;44.03;26.10;;;7.30;99.90;;;;;;5032510;28;20669;-69
2021/03/26 06:29:02;;;;;;;54.83;27.10;;;7.40;99.90;;;;;;5043694;28;20192;-71
2021/03/26 06:31:56;;;;;;;47.80;26.80;;;7.50;99.90;;;;;;5056247;28;20413;-71
2021/03/26 06:35:07;;;;;;;42.70;24.92;;;7.60;99.90;;;;;;5026318;28;20230;-71
2021/03/26 06:37:53;;;;;;;43.05;25.25;;;7.70;99.90;;;;;;5056545;28;20193;-71
2021/03/26 06:40:56;;;;;;;41.90;27.73;;;7.80;99.90;;;;;;5074114;28;20177;-72
2021/03/26 06:44:01;;;;;;;43.00;26.35;;;8.00;99.90;;;;;;5049211;28;20280;-71
2021/03/26 06:46:53;;;;;;;43.08;25.35;;;8.00;99.90;;;;;;5069200;28;20216;-72
2021/03/26 06:49:51;;;;;;;39.35;23.92;;;8.10;99.90;;;;;;5056297;28;20169;-71
2021/03/26 06:52:54;;;;;;;41.90;24.40;;;8.20;99.90;;;;;;5056087;28;20208;-71
2021/03/26 06:55:32;;;;;;;37.73;24.87;;;8.20;99.90;;;;;;5056295;28;20403;-71
2021/03/26 06:58:07;;;;;;;37.63;23.33;;;8.30;99.90;;;;;;5056312;28;20423;-71
2021/03/26 07:01:00;;;;;;;41.33;25.37;;;8.40;99.90;;;;;;5056611;28;20404;-72
2021/03/26 07:03:42;;;;;;;43.07;24.40;;;8.40;99.90;;;;;;5074091;28;20429;-71
2021/03/26 07:06:50;;;;;;;39.00;24.67;;;8.50;99.90;;;;;;5074137;28;20498;-71
2021/03/26 07:09:44;;;;;;;40.60;26.20;;;8.60;99.90;;;;;;5026089;28;21018;-72
2021/03/26 07:12:52;;;;;;;37.07;25.00;;;8.70;99.90;;;;;;5055886;28;20518;-71
2021/03/26 07:15:36;;;;;;;37.47;24.80;;;8.70;99.90;;;;;;5056305;28;20412;-71
2021/03/26 07:18:18;;;;;;;44.60;26.07;;;8.80;99.90;;;;;;5073818;28;20444;-72
2021/03/26 07:21:11;;;;;;;41.73;24.20;;;8.90;99.90;;;;;;5039967;28;20448;-72
2021/03/26 07:23:55;;;;;;;47.20;26.30;;;8.90;99.90;;;;;;5079581;28;20517;-72
2021/03/26 07:26:24;;;;;;;38.03;23.87;;;8.90;99.90;;;;;;5075729;28;20953;-71
2021/03/26 07:29:28;;;;;;;39.20;26.40;;;9.10;99.90;;;;;;5093578;28;20454;-71
2021/03/26 07:32:03;;;;;;;37.87;26.33;;;9.10;99.90;;;;;;5074584;28;20968;-70
2021/03/26 07:34:54;;;;;;;41.23;24.87;;;9.20;99.90;;;;;;5059318;28;20955;-71
2021/03/26 07:37:31;;;;;;;37.23;25.77;;;9.30;99.90;;;;;;5093497;28;20427;-70
2021/03/26 07:40:33;;;;;;;39.90;24.93;;;9.40;99.90;;;;;;5058965;28;20410;-71
2021/03/26 07:43:05;;;;;;;35.17;24.13;;;9.50;99.90;;;;;;5048196;28;20456;-70
2021/03/26 07:46:13;;;;;;;36.53;25.80;;;9.60;99.90;;;;;;5053324;28;20456;-74
2021/03/26 07:48:57;;;;;;;40.43;26.67;;;9.70;99.90;;;;;;5008784;28;20767;-74
2021/03/26 07:51:51;;;;;;;36.37;24.07;;;9.90;99.90;;;;;;5069336;28;20853;-73
2021/03/26 07:54:49;;;;;;;39.70;23.90;;;9.90;99.90;;;;;;5049907;28;20486;-75
2021/03/26 07:57:33;;;;;;;43.97;27.50;;;10.00;99.90;;;;;;5035424;28;20429;-74
2021/03/26 08:00:02;;;;;;;42.97;27.10;;;10.10;99.90;;;;;;5049728;28;20455;-75
2021/03/26 08:03:11;;;;;;;35.80;25.70;;;10.20;99.90;;;;;;5032636;28;21258;-73
2021/03/26 08:06:16;;;;;;;36.97;24.73;;;10.40;99.90;;;;;;5047846;28;21032;-75
2021/03/26 08:09:15;;;;;;;37.97;25.73;;;10.60;99.90;;;;;;5046648;28;21004;-73
2021/03/26 08:11:43;;;;;;;38.33;25.73;;;10.70;99.90;;;;;;5066453;23;20508;-81
2021/03/26 08:14:20;;;;;;;36.70;25.77;;;10.80;99.90;;;;;;5036045;28;20423;-81
2021/03/26 08:17:12;;;;;;;41.93;25.63;;;10.90;99.90;;;;;;5052830;28;20465;-81
2021/03/26 08:20:15;;;;;;;33.53;25.27;;;11.10;99.90;;;;;;5019823;28;20453;-81
2021/03/26 08:22:56;;;;;;;40.27;25.67;;;11.20;99.90;;;;;;5048243;28;20432;-81
2021/03/26 08:25:47;;;;;;;34.40;25.30;;;11.30;99.90;;;;;;5028515;28;20466;-80
2021/03/26 08:28:40;;;;;;;36.43;24.77;;;11.60;99.90;;;;;;5052867;28;20441;-79
2021/03/26 08:31:38;;;;;;;30.10;22.57;;;11.70;99.90;;;;;;5027690;28;20438;-79
2021/03/26 08:34:23;;;;;;;31.73;23.43;;;11.80;99.90;;;;;;5027699;28;20442;-80
2021/03/26 08:37:18;;;;;;;31.60;21.50;;;11.90;99.90;;;;;;5052760;28;20445;-80
2021/03/26 08:40:19;;;;;;;28.50;22.10;;;12.00;99.90;;;;;;5035016;28;20488;-81
2021/03/26 08:42:50;;;;;;;29.63;20.67;;;12.20;99.90;;;;;;5028962;28;20779;-81
2021/03/26 08:45:27;;;;;;;27.07;21.50;;;12.30;99.90;;;;;;5027968;28;20940;-82
2021/03/26 08:47:58;;;;;;;32.97;21.97;;;12.50;99.90;;;;;;5035872;28;20422;-81
2021/03/26 08:50:47;;;;;;;27.53;22.10;;;12.70;99.90;;;;;;5033477;28;20946;-82
2021/03/26 08:53:31;;;;;;;32.10;22.80;;;12.70;99.90;;;;;;5053462;28;20420;-79
2021/03/26 08:56:21;;;;;;;26.60;21.87;;;12.90;99.90;;;;;;5036249;28;20430;-81
2021/03/26 08:59:08;;;;;;;29.63;22.83;;;13.00;99.90;;;;;;5046846;28;20496;-81
2021/03/26 09:02:09;;;;;;;23.50;19.80;;;13.30;99.90;;;;;;5036404;28;20769;-80
2021/03/26 09:05:04;;;;;;;26.90;21.73;;;13.40;99.90;;;;;;5026966;28;20437;-79
2021/03/26 09:08:20;;;;;;;28.67;21.50;;;13.40;99.90;;;;;;5045475;28;20554;-79
2021/03/26 09:11:03;;;;;;;26.87;20.30;;;13.60;99.90;;;;;;5012077;28;20825;-80
2021/03/26 09:13:44;;;;;;;26.40;21.40;;;13.70;99.90;;;;;;5035431;28;20480;-79
2021/03/26 09:16:21;;;;;;;22.73;20.30;;;13.70;99.90;;;;;;5029623;28;20436;-80
2021/03/26 09:19:12;;;;;;;29.10;20.30;;;13.80;99.90;;;;;;4994122;28;20426;-80
2021/03/26 09:21:53;;;;;;;21.10;18.73;;;14.00;99.90;;;;;;5019267;28;20657;-81
2021/03/26 09:24:40;;;;;;;25.50;19.23;;;14.10;99.90;;;;;;5035138;28;20431;-80
2021/03/26 09:27:12;;;;;;;18.70;16.73;;;14.10;99.90;;;;;;5036162;28;20845;-80
2021/03/26 09:29:59;;;;;;;21.00;18.20;;;14.20;99.90;;;;;;5049290;28;20766;-80
2021/03/26 09:32:36;;;;;;;27.53;17.30;;;14.30;99.60;;;;;;5052177;28;20806;-80
2021/03/26 09:35:09;;;;;;;20.57;18.37;;;14.30;99.30;;;;;;5052970;28;20428;-80
2021/03/26 09:37:44;;;;;;;21.70;19.27;;;14.40;99.80;;;;;;5034461;28;20426;-80
2021/03/26 09:40:24;;;;;;;22.37;18.20;;;14.60;99.10;;;;;;5039117;28;20415;-80
2021/03/26 09:43:01;;;;;;;21.40;18.00;;;14.70;99.00;;;;;;5023484;28;20440;-80
2021/03/26 09:45:29;;;;;;;20.07;17.90;;;14.80;98.80;;;;;;5028652;28;20496;-80
2021/03/26 09:48:21;;;;;;;17.77;15.87;;;14.90;98.20;;;;;;5009501;28;20529;-80
2021/03/26 09:51:23;;;;;;;17.73;15.37;;;15.00;97.50;;;;;;5045279;28;20442;-80
2021/03/26 09:53:55;;;;;;;21.27;17.27;;;15.10;96.80;;;;;;5039106;28;20443;-80
2021/03/26 09:56:45;;;;;;;16.00;13.50;;;15.30;97.20;;;;;;5051212;28;20532;-80
2021/03/26 09:59:21;;;;;;;16.43;14.40;;;15.40;95.60;;;;;;5038043;28;20832;-80
2021/03/26 10:02:18;;;;;;;17.70;13.00;;;15.40;95.20;;;;;;5031578;28;20783;-82
2021/03/26 10:05:16;;;;;;;18.43;14.83;;;15.60;95.90;;;;;;5023992;28;20454;-81
2021/03/26 10:08:05;;;;;;;17.23;15.43;;;15.90;95.60;;;;;;5030391;28;20438;-82
2021/03/26 10:13:02;;;;;;;19.13;14.93;;;15.70;94.30;;;;;;5021796;28;20435;-81
2021/03/26 10:15:37;;;;;;;15.90;13.00;;;15.60;94.50;;;;;;5020776;28;20440;-80
2021/03/26 10:18:13;;;;;;;13.87;12.57;;;15.40;94.70;;;;;;5021259;28;20447;-81
2021/03/26 10:20:52;;;;;;;14.03;12.73;;;15.20;93.70;;;;;;5049414;28;20427;-80
2021/03/26 10:23:36;;;;;;;11.97;10.87;;;15.00;93.70;;;;;;5037555;28;20446;-80
2021/03/26 10:26:11;;;;;;;13.00;11.17;;;14.80;94.00;;;;;;5037741;28;20475;-81
2021/03/26 10:28:46;;;;;;;12.13;10.27;;;14.90;93.10;;;;;;5037708;28;20467;-80
2021/03/26 10:31:25;;;;;;;12.47;11.17;;;14.80;93.20;;;;;;5043234;28;20426;-79
2021/03/26 10:34:00;;;;;;;11.90;10.80;;;14.80;93.80;;;;;;5049076;28;21044;-79
2021/03/26 10:36:36;;;;;;;13.27;10.43;;;14.90;94.00;;;;;;5054816;28;20996;-78
2021/03/26 10:39:21;;;;;;;12.83;11.50;;;14.90;93.20;;;;;;5054754;28;20468;-79
2021/03/26 10:42:18;;;;;;;13.67;10.20;;;15.00;93.70;;;;;;5055169;28;20461;-78
2021/03/26 10:45:13;;;;;;;15.03;11.50;;;15.00;93.90;;;;;;5019680;28;20530;-78
2021/03/26 10:47:39;;;;;;;12.47;10.30;;;15.10;93.90;;;;;;5023818;28;20464;-78
2021/03/26 10:50:34;;;;;;;12.80;10.90;;;15.30;93.30;;;;;;5030073;28;20426;-78
2021/03/26 10:53:17;;;;;;;13.20;11.50;;;15.60;92.60;;;;;;5004795;28;20593;-79
2021/03/26 10:56:02;;;;;;;10.97;9.40;;;15.80;92.10;;;;;;5051174;28;20495;-81
2021/03/26 10:58:48;;;;;;;11.37;10.17;;;16.00;92.00;;;;;;5010376;28;20447;-81
2021/03/26 11:01:18;;;;;;;12.40;9.47;;;16.30;91.30;;;;;;5049492;28;20434;-79
2021/03/26 11:04:03;;;;;;;10.60;9.60;;;16.40;90.40;;;;;;5020137;28;20460;-79
2021/03/26 11:06:52;;;;;;;12.43;9.83;;;16.10;89.10;;;;;;5048905;28;20487;-78
2021/03/26 11:09:36;;;;;;;13.53;10.70;;;15.90;89.90;;;;;;5031179;28;20501;-79
2021/03/26 11:12:05;;;;;;;11.20;10.30;;;15.70;90.00;;;;;;5034549;28;20462;-78
2021/03/26 11:14:46;;;;;;;11.93;10.83;;;15.70;90.90;;;;;;5015234;28;20605;-79
2021/03/26 11:17:30;;;;;;;11.80;10.70;;;16.10;91.20;;;;;;5052140;28;20508;-80
2021/03/26 11:20:11;;;;;;;13.60;10.33;;;16.50;89.50;;;;;;5034977;28;20431;-80
2021/03/26 11:22:49;;;;;;;12.27;10.80;;;16.60;89.70;;;;;;5053522;28;20813;-80
2021/03/26 11:25:25;;;;;;;13.03;10.83;;;16.60;88.20;;;;;;5037122;28;20478;-79
2021/03/26 11:27:54;;;;;;;11.70;10.50;;;16.50;87.80;;;;;;5020149;28;20631;-79
2021/03/26 11:30:47;;;;;;;11.80;10.70;;;16.30;89.40;;;;;;5023880;28;20438;-80
2021/03/26 11:33:16;;;;;;;13.33;12.17;;;16.50;88.30;;;;;;4985430;28;20425;-79
2021/03/26 11:36:01;;;;;;;10.43;9.43;;;16.70;90.00;;;;;;5044291;28;20470;-79
2021/03/26 11:38:30;;;;;;;11.50;10.50;;;16.90;85.70;;;;;;5043348;28;20748;-79
2021/03/26 11:41:18;;;;;;;12.40;11.10;;;17.10;84.60;;;;;;5054563;28;20426;-79
2021/03/26 11:43:51;;;;;;;11.43;10.33;;;16.80;84.60;;;;;;5010260;28;20457;-79
2021/03/26 11:46:25;;;;;;;12.60;11.47;;;16.90;88.30;;;;;;5029076;28;20485;-82
2021/03/26 11:49:16;;;;;;;14.80;13.13;;;17.10;85.30;;;;;;5040177;28;20485;-81
2021/03/26 11:52:12;;;;;;;14.13;12.73;;;17.20;84.40;;;;;;5036458;28;20439;-81
2021/03/26 11:54:55;;;;;;;11.70;10.60;;;17.10;85.30;;;;;;5048233;28;20430;-81
2021/03/26 11:57:23;;;;;;;13.90;12.40;;;16.90;85.50;;;;;;5021948;28;20446;-82
2021/03/26 12:00:00;;;;;;;11.73;10.70;;;16.80;86.20;;;;;;5036414;28;20517;-81
2021/03/26 12:02:46;;;;;;;14.17;12.43;;;16.70;86.90;;;;;;5044988;28;20462;-81
2021/03/26 12:05:42;;;;;;;13.60;12.00;;;16.60;85.80;;;;;;5019294;28;20958;-81
2021/03/26 12:08:22;;;;;;;16.03;11.17;;;16.50;87.20;;;;;;4999606;28;20426;-81
2021/03/26 12:11:04;;;;;;;12.10;10.30;;;16.60;85.20;;;;;;5024570;28;20967;-81
2021/03/26 12:13:37;;;;;;;13.40;11.03;;;16.70;84.60;;;;;;5036315;28;20433;-81
2021/03/26 12:16:14;;;;;;;12.43;10.20;;;16.60;85.80;;;;;;5026794;28;20474;-81
2021/03/26 12:18:54;;;;;;;10.40;9.40;;;16.80;85.50;;;;;;5048788;28;20434;-80
2021/03/26 12:21:29;;;;;;;13.07;10.67;;;16.80;84.60;;;;;;5049458;28;20816;-80
2021/03/26 12:24:17;;;;;;;14.53;11.10;;;16.90;83.50;;;;;;5051102;28;20878;-80
2021/03/26 12:26:51;;;;;;;14.80;10.60;;;16.90;84.50;;;;;;5020897;28;20506;-80
2021/03/26 12:29:32;;;;;;;12.10;9.97;;;16.80;85.30;;;;;;5006191;28;20756;-81
2021/03/26 12:32:06;;;;;;;15.23;11.73;;;16.70;85.20;;;;;;5042426;28;20446;-81
2021/03/26 12:35:01;;;;;;;15.70;13.43;;;16.80;85.00;;;;;;5049705;28;20523;-80
2021/03/26 12:37:51;;;;;;;11.17;10.00;;;16.90;85.20;;;;;;5041526;28;20406;-80
2021/03/26 12:40:20;;;;;;;15.60;12.53;;;17.00;84.40;;;;;;5019829;28;20446;-80
2021/03/26 12:42:53;;;;;;;15.57;11.90;;;17.10;84.80;;;;;;5036465;28;20422;-80
2021/03/26 12:45:30;;;;;;;22.90;14.53;;;17.40;83.20;;;;;;5019849;28;20470;-79
2021/03/26 12:48:48;;;;;;;13.47;12.17;;;17.80;84.20;;;;;;5007144;28;20453;-80
2021/03/26 12:51:23;;;;;;;12.20;10.90;;;18.20;82.00;;;;;;5052101;28;20842;-80
2021/03/26 12:54:12;;;;;;;12.53;10.70;;;18.40;79.50;;;;;;5045560;28;20437;-80
2021/03/26 12:56:59;;;;;;;12.67;11.40;;;18.20;78.90;;;;;;5042851;28;20434;-80
2021/03/26 12:59:40;;;;;;;14.20;12.80;;;18.30;79.50;;;;;;5040410;28;20438;-80
2021/03/26 13:02:13;;;;;;;11.77;10.77;;;18.30;78.30;;;;;;5040606;28;20424;-80
2021/03/26 13:04:58;;;;;;;12.77;11.67;;;18.60;79.20;;;;;;5033760;28;20425;-80
2021/03/26 13:07:38;;;;;;;10.40;9.40;;;18.70;78.80;;;;;;5048227;28;20475;-80
2021/03/26 13:10:49;;;;;;;12.83;11.43;;;18.70;77.10;;;;;;5028188;28;20514;-80
2021/03/26 13:13:25;;;;;;;12.10;11.00;;;18.70;77.20;;;;;;4989445;28;20452;-80
2021/03/26 13:16:17;;;;;;;12.43;11.23;;;18.40;76.20;;;;;;5033703;28;20774;-80
2021/03/26 13:18:58;;;;;;;10.50;9.60;;;18.00;76.90;;;;;;5031176;28;20445;-82
2021/03/26 13:21:33;;;;;;;11.27;10.17;;;17.80;77.80;;;;;;5033529;28;20418;-83
2021/03/26 13:24:33;;;;;;;11.33;10.20;;;17.60;78.10;;;;;;5034222;28;20437;-82
2021/03/26 13:27:20;;;;;;;11.57;10.67;;;17.50;79.40;;;;;;5005834;28;20867;-79
2021/03/26 13:30:04;;;;;;;11.23;10.23;;;17.60;79.60;;;;;;5037712;28;20428;-79
2021/03/26 13:32:58;;;;;;;11.17;10.17;;;18.10;79.90;;;;;;5037218;28;20455;-80
2021/03/26 13:35:27;;;;;;;9.33;8.43;;;18.00;77.20;;;;;;5043942;28;20961;-82
2021/03/26 13:38:00;;;;;;;9.70;8.80;;;18.00;77.70;;;;;;5013503;28;20516;-81
2021/03/26 13:40:32;;;;;;;11.47;9.60;;;18.20;78.40;;;;;;5019925;28;20448;-81
2021/03/26 13:43:13;;;;;;;12.80;9.10;;;18.60;75.50;;;;;;5003394;28;20431;-80
2021/03/26 13:45:55;;;;;;;11.43;10.10;;;18.70;76.40;;;;;;5042037;28;20467;-80
2021/03/26 13:48:28;;;;;;;10.37;9.30;;;18.50;74.20;;;;;;5038004;28;20431;-79
2021/03/26 13:50:58;;;;;;;11.40;9.50;;;18.20;74.60;;;;;;5037155;28;20436;-80
2021/03/26 13:53:33;;;;;;;10.00;9.20;;;18.00;74.70;;;;;;5028523;28;20485;-80
2021/03/26 13:56:08;;;;;;;9.50;8.50;;;17.80;75.30;;;;;;5039168;28;20410;-80
2021/03/26 13:58:42;;;;;;;8.13;7.07;;;17.80;75.20;;;;;;5041404;28;20439;-80
2021/03/26 14:01:34;;;;;;;8.73;7.63;;;18.00;73.50;;;;;;5038924;28;20963;-80